createdAt,value
2022-11-27T00:01:34.697Z,14.63
2022-11-27T00:04:02.906Z,19.88
2022-11-27T00:06:32.446Z,17.58
2022-11-27T00:09:02.099Z,16.50
2022-11-27T00:11:31.836Z,20.25
2022-11-27T00:14:00.192Z,21.05
2022-11-27T00:16:29.871Z,16.67
2022-11-27T00:18:59.456Z,27.05
2022-11-27T00:21:30.398Z,23.98
2022-11-27T00:24:00.886Z,19.08
2022-11-27T00:26:36.007Z,15.55
2022-11-27T00:29:05.570Z,17.27
2022-11-27T00:31:35.455Z,20.45
2022-11-27T00:34:07.251Z,14.80
2022-11-27T00:36:36.485Z,25.67
2022-11-27T00:39:05.560Z,20.30
2022-11-27T00:41:33.979Z,26.27
2022-11-27T00:44:02.247Z,21.27
2022-11-27T00:46:32.283Z,16.73
2022-11-27T00:49:01.693Z,18.58
2022-11-27T00:51:32.344Z,24.13
2022-11-27T00:54:00.717Z,26.88
2022-11-27T00:56:30.739Z,25.92
2022-11-27T00:58:59.166Z,21.35
2022-11-27T01:01:29.240Z,19.38
2022-11-27T01:03:58.727Z,22.80
2022-11-27T01:06:27.536Z,19.65
2022-11-27T01:08:57.067Z,17.90
2022-11-27T01:11:27.299Z,23.60
2022-11-27T01:16:27.772Z,20.98
2022-11-27T01:18:58.359Z,21.08
2022-11-27T01:21:28.272Z,17.60
2022-11-27T01:23:58.101Z,29.55
2022-11-27T01:26:26.648Z,26.73
2022-11-27T01:28:55.992Z,28.40
2022-11-27T01:31:26.984Z,29.17
2022-11-27T01:33:57.478Z,21.10
2022-11-27T01:36:26.041Z,22.60
2022-11-27T01:38:54.424Z,23.48
2022-11-27T01:41:26.212Z,22.88
2022-11-27T01:43:56.499Z,22.67
2022-11-27T01:46:36.225Z,14.23
2022-11-27T01:49:28.680Z,13.52
2022-11-27T01:52:06.727Z,22.80
2022-11-27T01:54:41.200Z,25.98
2022-11-27T01:57:16.205Z,23.55
2022-11-27T01:59:45.336Z,18.48
2022-11-27T02:02:13.477Z,14.75
2022-11-27T02:04:41.892Z,19.45
2022-11-27T02:07:10.147Z,15.00
2022-11-27T02:09:38.329Z,21.77
2022-11-27T02:12:24.970Z,21.13
2022-11-27T02:15:04.317Z,22.50
2022-11-27T02:17:39.697Z,21.20
2022-11-27T02:20:23.569Z,19.15
2022-11-27T02:23:14.819Z,23.05
2022-11-27T02:26:02.243Z,21.55
2022-11-27T02:28:43.725Z,19.98
2022-11-27T02:31:20.109Z,18.45
2022-11-27T02:33:54.444Z,29.63
2022-11-27T02:36:29.008Z,25.70
2022-11-27T02:39:03.873Z,22.13
2022-11-27T02:41:38.649Z,23.60
2022-11-27T02:44:09.357Z,16.13
2022-11-27T02:46:40.289Z,22.70
2022-11-27T02:49:14.093Z,17.75
2022-11-27T02:51:47.303Z,26.58
2022-11-27T02:54:21.267Z,27.48
2022-11-27T02:56:51.670Z,21.88
2022-11-27T02:59:21.513Z,21.15
2022-11-27T03:01:57.002Z,15.27
2022-11-27T03:04:28.875Z,23.33
2022-11-27T03:07:00.773Z,17.13
2022-11-27T03:09:34.013Z,28.15
2022-11-27T03:12:02.883Z,15.85
2022-11-27T03:14:32.355Z,23.85
2022-11-27T03:17:06.682Z,12.82
2022-11-27T03:19:42.914Z,34.00
2022-11-27T03:22:12.804Z,20.95
2022-11-27T03:24:41.253Z,17.20
2022-11-27T03:27:13.370Z,22.30
2022-11-27T03:29:47.043Z,24.40
2022-11-27T03:32:16.747Z,15.35
2022-11-27T03:34:45.086Z,20.05
2022-11-27T03:37:13.166Z,31.30
2022-11-27T03:39:41.435Z,13.50
2022-11-27T03:42:19.333Z,23.77
2022-11-27T03:44:54.819Z,24.92
2022-11-27T03:47:36.931Z,28.02
2022-11-27T03:50:21.602Z,23.05
2022-11-27T03:52:59.849Z,28.98
2022-11-27T03:55:37.917Z,16.40
2022-11-27T03:58:09.959Z,14.20
2022-11-27T04:00:42.195Z,21.25
2022-11-27T04:03:14.322Z,24.45
2022-11-27T04:05:42.513Z,28.20
2022-11-27T04:08:10.536Z,31.20
2022-11-27T04:10:38.842Z,19.27
2022-11-27T04:13:06.841Z,21.73
2022-11-27T04:15:34.993Z,29.35
2022-11-27T04:18:03.060Z,17.48
2022-11-27T04:20:32.465Z,19.88
2022-11-27T04:23:00.517Z,21.88
2022-11-27T04:25:28.983Z,22.35
2022-11-27T04:27:57.251Z,22.23
2022-11-27T04:30:25.437Z,14.38
2022-11-27T04:32:53.557Z,17.38
2022-11-27T04:35:21.638Z,22.67
2022-11-27T04:37:50.998Z,12.23
2022-11-27T04:40:19.315Z,22.23
2022-11-27T04:42:47.381Z,23.70
2022-11-27T04:45:15.514Z,20.70
2022-11-27T04:47:43.539Z,21.13
2022-11-27T04:50:11.819Z,22.38
2022-11-27T04:52:39.864Z,32.20
2022-11-27T04:55:10.612Z,17.30
2022-11-27T04:57:38.713Z,28.52
2022-11-27T05:00:08.032Z,22.13
2022-11-27T05:02:36.163Z,21.08
2022-11-27T05:05:05.110Z,29.05
2022-11-27T05:07:33.212Z,25.67
2022-11-27T05:10:02.757Z,16.83
2022-11-27T05:12:32.196Z,19.52
2022-11-27T05:15:04.225Z,19.85
2022-11-27T05:17:33.033Z,22.27
2022-11-27T05:20:01.076Z,23.48
2022-11-27T05:22:29.167Z,24.15
2022-11-27T05:24:57.144Z,31.30
2022-11-27T05:27:25.644Z,19.17
2022-11-27T05:29:55.608Z,27.73
2022-11-27T05:32:23.652Z,22.25
2022-11-27T05:34:51.646Z,25.42
2022-11-27T05:37:20.153Z,25.95
2022-11-27T05:39:48.585Z,25.00
2022-11-27T05:42:16.579Z,21.63
2022-11-27T05:44:44.573Z,26.13
2022-11-27T05:47:13.997Z,27.30
2022-11-27T05:49:42.020Z,20.67
2022-11-27T05:52:10.076Z,17.60
2022-11-27T05:54:38.767Z,23.92
2022-11-27T05:57:07.034Z,28.00
2022-11-27T05:59:35.097Z,19.50
2022-11-27T06:02:03.286Z,18.63
2022-11-27T06:04:34.363Z,16.40
2022-11-27T06:07:02.474Z,27.38
2022-11-27T06:09:30.552Z,29.60
2022-11-27T06:11:58.675Z,17.63
2022-11-27T06:14:26.788Z,32.05
2022-11-27T06:16:55.057Z,18.10
2022-11-27T06:19:23.299Z,20.83
2022-11-27T06:21:52.777Z,20.33
2022-11-27T06:24:20.918Z,21.52
2022-11-27T06:26:49.162Z,18.33
2022-11-27T06:29:17.275Z,16.55
2022-11-27T06:31:45.475Z,32.90
2022-11-27T06:34:13.957Z,13.45
2022-11-27T06:36:42.007Z,32.25
2022-11-27T06:39:12.212Z,33.63
2022-11-27T06:44:08.181Z,23.63
2022-11-27T06:46:36.237Z,15.85
2022-11-27T06:49:04.594Z,11.13
2022-11-27T06:51:33.689Z,19.48
2022-11-27T06:54:02.894Z,23.70
2022-11-27T06:56:33.068Z,17.42
2022-11-27T06:59:02.610Z,30.35
2022-11-27T07:01:32.611Z,23.83
2022-11-27T07:04:01.262Z,19.00
2022-11-27T07:06:29.693Z,17.92
2022-11-27T07:08:58.104Z,16.65
2022-11-27T07:11:28.710Z,18.95
2022-11-27T07:14:01.528Z,28.38
2022-11-27T07:16:32.024Z,28.23
2022-11-27T07:19:02.763Z,17.60
2022-11-27T07:21:31.290Z,29.50
2022-11-27T07:23:59.903Z,23.08
2022-11-27T07:26:29.167Z,21.25
2022-11-27T07:28:57.784Z,21.30
2022-11-27T07:31:29.304Z,26.23
2022-11-27T07:33:58.318Z,17.60
2022-11-27T07:36:28.165Z,21.85
2022-11-27T07:38:56.240Z,24.95
2022-11-27T07:41:26.893Z,18.45
2022-11-27T07:43:57.445Z,20.13
2022-11-27T07:46:26.893Z,25.45
2022-11-27T07:48:54.966Z,20.60
2022-11-27T07:51:23.479Z,27.65
2022-11-27T07:53:52.713Z,21.58
2022-11-27T07:56:21.146Z,19.35
2022-11-27T07:58:49.607Z,29.40
2022-11-27T08:01:20.490Z,26.95
2022-11-27T08:03:50.034Z,20.40
2022-11-27T08:06:19.896Z,13.85
2022-11-27T08:08:48.233Z,25.42
2022-11-27T08:11:18.248Z,23.17
2022-11-27T08:13:47.536Z,22.48
2022-11-27T08:16:15.768Z,15.20
2022-11-27T08:18:44.153Z,21.52
2022-11-27T08:21:13.768Z,25.00
2022-11-27T08:23:42.023Z,16.73
2022-11-27T08:26:11.359Z,19.05
2022-11-27T08:28:39.967Z,16.20
2022-11-27T08:31:09.672Z,26.17
2022-11-27T08:33:38.111Z,22.15
2022-11-27T08:36:09.752Z,23.80
2022-11-27T08:38:41.088Z,23.73
2022-11-27T08:41:10.659Z,16.40
2022-11-27T08:43:38.715Z,18.63
2022-11-27T08:46:08.192Z,17.58
2022-11-27T08:48:36.684Z,13.57
2022-11-27T08:51:08.295Z,14.07
2022-11-27T08:53:37.739Z,21.25
2022-11-27T08:56:15.259Z,16.50
2022-11-27T08:58:43.368Z,17.08
2022-11-27T09:01:14.855Z,19.35
2022-11-27T09:03:43.436Z,12.98
2022-11-27T09:06:13.616Z,28.70
2022-11-27T09:11:15.435Z,24.13
2022-11-27T09:13:44.353Z,20.80
2022-11-27T09:16:14.609Z,28.95
2022-11-27T09:18:45.056Z,23.48
2022-11-27T09:21:14.301Z,17.63
2022-11-27T09:23:42.376Z,25.33
2022-11-27T09:26:12.709Z,15.57
2022-11-27T09:28:43.057Z,23.85
2022-11-27T09:31:13.410Z,15.52
2022-11-27T09:33:42.644Z,22.75
2022-11-27T09:36:13.275Z,13.87
2022-11-27T09:38:41.382Z,29.58
2022-11-27T09:41:28.414Z,23.75
2022-11-27T09:44:03.098Z,21.02
2022-11-27T09:46:34.387Z,21.90
2022-11-27T09:49:06.752Z,20.45
2022-11-27T09:51:38.880Z,21.15
2022-11-27T09:54:17.044Z,13.50
2022-11-27T09:56:49.293Z,24.35
2022-11-27T09:59:22.789Z,11.85
2022-11-27T10:01:51.443Z,18.20
2022-11-27T10:04:22.020Z,16.75
2022-11-27T10:07:16.395Z,18.50
2022-11-27T10:10:03.668Z,14.55
2022-11-27T10:12:43.416Z,15.75
2022-11-27T10:15:18.408Z,19.33
2022-11-27T10:17:52.576Z,17.35
2022-11-27T10:20:29.718Z,19.30
2022-11-27T10:23:04.423Z,16.35
2022-11-27T10:25:40.180Z,18.88
2022-11-27T10:28:30.674Z,16.58
2022-11-27T10:31:04.815Z,25.17
2022-11-27T10:33:40.728Z,21.08
2022-11-27T10:36:15.233Z,19.40
2022-11-27T10:38:44.272Z,18.42
2022-11-27T10:41:47.582Z,19.17
2022-11-27T10:44:29.171Z,16.73
2022-11-27T10:47:03.374Z,22.20
2022-11-27T10:49:32.052Z,20.40
2022-11-27T10:52:00.794Z,21.92
2022-11-27T10:54:33.518Z,11.80
2022-11-27T10:57:15.889Z,16.13
2022-11-27T10:59:49.760Z,7.68
2022-11-27T11:02:33.628Z,14.95
2022-11-27T11:05:34.998Z,11.90
2022-11-27T11:08:06.234Z,12.75
2022-11-27T11:10:37.216Z,10.65
2022-11-27T11:13:08.283Z,13.70
2022-11-27T11:15:51.640Z,17.27
2022-11-27T11:18:23.057Z,14.20
2022-11-27T11:20:53.996Z,12.90
2022-11-27T11:23:25.062Z,13.50
2022-11-27T11:25:56.495Z,19.55
2022-11-27T11:28:26.423Z,7.75
2022-11-27T11:30:59.302Z,13.95
2022-11-27T11:33:29.922Z,9.07
2022-11-27T11:36:08.878Z,8.30
2022-11-27T11:38:38.277Z,12.05
2022-11-27T11:41:09.628Z,14.05
2022-11-27T11:43:38.890Z,11.48
2022-11-27T11:46:17.280Z,10.80
2022-11-27T11:48:57.203Z,8.82
2022-11-27T11:51:39.727Z,8.93
2022-11-27T11:54:26.285Z,17.17
2022-11-27T11:56:56.900Z,8.90
2022-11-27T11:59:35.030Z,8.55
2022-11-27T12:02:25.965Z,12.63
2022-11-27T12:05:12.887Z,12.57
2022-11-27T12:07:55.548Z,15.10
2022-11-27T12:10:30.213Z,11.48
2022-11-27T12:13:10.930Z,19.35
2022-11-27T12:15:43.868Z,13.00
2022-11-27T12:18:22.828Z,10.50
2022-11-27T12:21:07.172Z,8.77
2022-11-27T12:24:06.983Z,14.65
2022-11-27T12:26:49.996Z,14.43
2022-11-27T12:29:50.363Z,16.63
2022-11-27T12:32:43.923Z,15.18
2022-11-27T12:35:30.445Z,6.68
2022-11-27T12:38:13.304Z,4.43
2022-11-27T12:40:54.484Z,4.88
2022-11-27T12:43:26.407Z,7.18
2022-11-27T12:46:00.967Z,4.40
2022-11-27T12:48:36.160Z,3.80
2022-11-27T12:51:09.288Z,6.05
2022-11-27T12:53:44.177Z,4.60
2022-11-27T12:56:17.163Z,6.93
2022-11-27T12:58:49.605Z,3.13
2022-11-27T13:01:26.697Z,8.18
2022-11-27T13:04:06.524Z,6.10
2022-11-27T13:06:43.968Z,8.13
2022-11-27T13:09:19.800Z,6.55
2022-11-27T13:11:48.894Z,9.68
2022-11-27T13:14:20.872Z,4.13
2022-11-27T13:16:54.225Z,4.70
2022-11-27T13:19:28.811Z,6.38
2022-11-27T13:21:59.067Z,7.88
2022-11-27T13:24:30.322Z,5.38
2022-11-27T13:27:05.166Z,3.05
2022-11-27T13:29:40.562Z,5.45
2022-11-27T13:32:10.468Z,4.78
2022-11-27T13:34:46.790Z,9.57
2022-11-27T13:37:28.972Z,4.97
2022-11-27T13:40:07.964Z,4.97
2022-11-27T13:42:38.104Z,2.10
2022-11-27T13:47:40.645Z,1.73
2022-11-27T13:50:10.899Z,5.85
2022-11-27T13:52:51.066Z,1.52
2022-11-27T13:55:27.226Z,1.10
2022-11-27T13:57:56.909Z,5.43
2022-11-27T14:00:34.841Z,0.20
2022-11-27T14:03:03.202Z,2.33
2022-11-27T14:05:41.775Z,4.55
2022-11-27T14:08:21.731Z,1.50
2022-11-27T14:10:55.100Z,5.15
2022-11-27T14:13:27.552Z,4.07
2022-11-27T14:16:02.126Z,3.08
2022-11-27T14:18:31.901Z,4.70
2022-11-27T14:21:03.267Z,2.95
2022-11-27T14:23:33.009Z,4.57
2022-11-27T14:26:14.650Z,5.93
2022-11-27T14:28:45.205Z,6.45
2022-11-27T14:34:14.025Z,2.72
2022-11-27T14:36:39.524Z,1.83
2022-11-27T14:39:08.140Z,4.05
2022-11-27T14:41:37.847Z,3.28
2022-11-27T14:44:07.731Z,3.17
2022-11-27T14:46:38.357Z,2.28
2022-11-27T14:49:06.482Z,3.20
2022-11-27T14:51:37.442Z,6.03
2022-11-27T14:54:11.536Z,4.03
2022-11-27T14:56:44.435Z,13.15
2022-11-27T14:59:16.855Z,7.13
2022-11-27T15:01:46.748Z,5.65
2022-11-27T15:04:28.012Z,7.82
2022-11-27T15:06:56.823Z,4.72
2022-11-27T15:09:32.103Z,8.60
2022-11-27T15:12:09.781Z,4.85
2022-11-27T15:14:37.958Z,2.60
2022-11-27T15:17:06.418Z,8.35
2022-11-27T15:19:37.285Z,8.40
2022-11-27T15:22:06.418Z,9.07
2022-11-27T15:24:37.205Z,6.10
2022-11-27T15:27:22.946Z,5.25
2022-11-27T15:30:03.538Z,4.50
2022-11-27T15:32:51.428Z,4.15
2022-11-27T15:35:26.361Z,4.50
2022-11-27T15:37:57.159Z,2.80
2022-11-27T15:40:33.492Z,3.60
2022-11-27T15:43:03.263Z,7.03
2022-11-27T15:45:33.766Z,6.43
2022-11-27T15:48:02.900Z,6.55
2022-11-27T15:50:31.991Z,4.03
2022-11-27T15:53:01.122Z,5.70
2022-11-27T15:55:29.225Z,4.82
2022-11-27T15:57:57.238Z,4.53
2022-11-27T16:00:27.282Z,4.90
2022-11-27T16:02:57.400Z,9.40
2022-11-27T16:05:25.479Z,3.55
2022-11-27T16:07:55.318Z,2.65
2022-11-27T16:12:55.154Z,8.68
2022-11-27T16:15:25.050Z,6.63
2022-11-27T16:17:56.959Z,9.35
2022-11-27T16:20:26.833Z,7.38
2022-11-27T16:22:54.972Z,5.00
2022-11-27T16:25:23.209Z,4.25
2022-11-27T16:27:51.280Z,8.50
2022-11-27T16:30:20.873Z,6.88
2022-11-27T16:32:48.841Z,11.02
2022-11-27T16:35:18.499Z,7.28
2022-11-27T16:37:57.647Z,8.68
2022-11-27T16:40:27.400Z,12.57
2022-11-27T16:42:55.430Z,12.60
2022-11-27T16:45:23.497Z,7.35
2022-11-27T16:47:51.646Z,7.45
2022-11-27T16:50:21.060Z,9.43
2022-11-27T16:52:54.440Z,8.55
2022-11-27T16:55:24.910Z,5.75
2022-11-27T17:00:21.574Z,18.75
2022-11-27T17:02:49.670Z,25.67
2022-11-27T17:05:18.037Z,15.48
2022-11-27T17:07:47.473Z,22.05
2022-11-27T17:10:17.263Z,16.15
2022-11-27T17:12:45.432Z,14.18
2022-11-27T17:15:13.646Z,16.83
2022-11-27T17:17:42.671Z,15.82
2022-11-27T17:20:12.315Z,11.07
2022-11-27T17:22:40.370Z,12.13
2022-11-27T17:25:11.274Z,12.73
2022-11-27T17:27:39.324Z,13.55
2022-11-27T17:30:08.756Z,6.10
2022-11-27T17:32:36.935Z,8.60
2022-11-27T17:35:05.660Z,9.27
2022-11-27T17:37:33.713Z,8.35
2022-11-27T17:40:02.040Z,12.05
2022-11-27T17:42:31.693Z,13.35
2022-11-27T17:45:00.726Z,11.40
2022-11-27T17:47:28.799Z,13.95
2022-11-27T17:49:56.847Z,8.18
2022-11-27T17:52:25.979Z,7.20
2022-11-27T17:54:55.084Z,10.52
2022-11-27T17:57:23.143Z,14.35
2022-11-27T17:59:52.606Z,14.38
2022-11-27T18:02:20.749Z,16.02
2022-11-27T18:04:48.880Z,8.88
2022-11-27T18:07:19.219Z,6.40
2022-11-27T18:09:48.371Z,9.55
2022-11-27T18:12:16.400Z,8.93
2022-11-27T18:14:44.441Z,21.02
2022-11-27T18:17:17.236Z,7.10
2022-11-27T18:19:45.602Z,13.10
2022-11-27T18:22:14.561Z,9.88
2022-11-27T18:24:42.813Z,9.98
2022-11-27T18:27:11.192Z,11.05
2022-11-27T18:29:41.193Z,10.82
2022-11-27T18:32:10.221Z,21.00
2022-11-27T18:34:39.795Z,14.60
2022-11-27T18:37:08.697Z,11.18
2022-11-27T18:39:37.272Z,12.85
2022-11-27T18:42:06.163Z,18.42
2022-11-27T18:44:39.592Z,10.63
2022-11-27T18:47:11.265Z,12.48
2022-11-27T18:49:41.792Z,11.35
2022-11-27T18:52:10.586Z,16.23
2022-11-27T18:54:38.905Z,21.67
2022-11-27T18:57:07.274Z,21.35
2022-11-27T18:59:35.897Z,20.90
2022-11-27T19:02:05.230Z,19.80
2022-11-27T19:04:36.191Z,15.95
2022-11-27T19:07:05.853Z,12.77
2022-11-27T19:09:33.927Z,20.88
2022-11-27T19:12:03.077Z,12.43
2022-11-27T19:14:31.264Z,8.43
2022-11-27T19:16:59.425Z,9.45
2022-11-27T19:22:17.339Z,6.82
2022-11-27T19:24:45.461Z,4.13
2022-11-27T19:27:13.492Z,7.38
2022-11-27T19:29:41.864Z,4.50
2022-11-27T19:32:10.071Z,2.63
2022-11-27T19:34:40.714Z,5.97
2022-11-27T19:37:09.230Z,3.80
2022-11-27T19:39:38.745Z,5.65
2022-11-27T19:42:10.013Z,8.65
2022-11-27T19:44:39.668Z,7.88
2022-11-27T19:47:09.555Z,5.60
2022-11-27T19:49:37.758Z,4.60
2022-11-27T19:52:06.973Z,7.65
2022-11-27T19:54:35.179Z,5.30
2022-11-27T19:57:04.877Z,6.30
2022-11-27T19:59:32.941Z,5.75
2022-11-27T20:02:01.051Z,5.78
2022-11-27T20:04:30.780Z,6.68
2022-11-27T20:06:59.035Z,2.80
2022-11-27T20:09:27.429Z,4.85
2022-11-27T20:11:55.495Z,4.45
2022-11-27T20:14:24.977Z,3.28
2022-11-27T20:16:53.538Z,6.03
2022-11-27T20:19:21.775Z,3.05
2022-11-27T20:21:49.987Z,5.38
2022-11-27T20:24:18.057Z,6.78
2022-11-27T20:26:46.263Z,6.53
2022-11-27T20:29:15.876Z,6.30
2022-11-27T20:31:45.846Z,8.18
2022-11-27T20:34:20.656Z,13.05
2022-11-27T20:36:49.606Z,20.98
2022-11-27T20:39:21.682Z,8.63
2022-11-27T20:41:51.481Z,8.02
2022-11-27T20:44:21.063Z,10.85
2022-11-27T20:46:51.047Z,9.77
2022-11-27T20:49:20.703Z,9.20
2022-11-27T20:51:50.746Z,8.25
2022-11-27T20:54:19.659Z,4.32
2022-11-27T20:56:48.092Z,8.93
2022-11-27T20:59:16.278Z,8.77
2022-11-27T21:01:44.443Z,9.52
2022-11-27T21:04:22.291Z,11.27
2022-11-27T21:06:53.414Z,9.10
2022-11-27T21:09:22.044Z,21.20
2022-11-27T21:11:50.320Z,14.00
2022-11-27T21:14:19.057Z,16.00
2022-11-27T21:16:49.139Z,14.77
2022-11-27T21:19:22.913Z,17.27
2022-11-27T21:21:55.302Z,9.70
2022-11-27T21:24:28.572Z,10.38
2022-11-27T21:26:59.004Z,7.45
2022-11-27T21:29:28.590Z,14.00
2022-11-27T21:31:57.263Z,9.73
2022-11-27T21:34:27.441Z,14.52
2022-11-27T21:36:55.587Z,8.73
2022-11-27T21:39:24.945Z,19.90
2022-11-27T21:41:54.826Z,27.00
2022-11-27T21:44:26.411Z,53.47
2022-11-27T21:46:54.701Z,41.15
2022-11-27T21:49:27.328Z,14.93
2022-11-27T21:51:56.126Z,20.77
2022-11-27T21:54:26.557Z,12.38
2022-11-27T21:56:54.803Z,16.67
2022-11-27T21:59:23.025Z,10.35
2022-11-27T22:01:51.366Z,14.35
2022-11-27T22:04:21.436Z,14.88
2022-11-27T22:06:52.937Z,10.18
2022-11-27T22:09:21.363Z,16.33
2022-11-27T22:11:52.666Z,9.80
2022-11-27T22:14:22.172Z,6.35
2022-11-27T22:16:50.588Z,11.20
2022-11-27T22:20:03.903Z,9.50
2022-11-27T22:22:24.115Z,16.05
2022-11-27T22:24:52.544Z,9.05
2022-11-27T22:27:20.589Z,12.05
2022-11-27T22:29:48.601Z,17.00
2022-11-27T22:32:16.612Z,14.73
2022-11-27T22:34:44.902Z,9.57
2022-11-27T22:37:13.454Z,11.32
2022-11-27T22:39:44.331Z,11.27
2022-11-27T22:42:12.892Z,13.15
2022-11-27T22:44:41.280Z,18.27
2022-11-27T22:47:10.887Z,20.90
2022-11-27T22:49:39.004Z,11.18
2022-11-27T22:52:07.002Z,14.25
2022-11-27T22:54:35.051Z,9.80
2022-11-27T22:57:05.738Z,7.35
2022-11-27T22:59:34.718Z,13.20
2022-11-27T23:02:03.584Z,15.63
2022-11-27T23:04:31.820Z,12.40
2022-11-27T23:07:00.160Z,11.85
2022-11-27T23:09:28.269Z,15.82
2022-11-27T23:11:57.052Z,18.50
2022-11-27T23:14:27.249Z,12.30
2022-11-27T23:19:23.152Z,10.77
2022-11-27T23:21:51.273Z,13.45
2022-11-27T23:24:20.987Z,7.60
2022-11-27T23:26:49.377Z,12.50
2022-11-27T23:29:30.220Z,11.48
2022-11-27T23:31:58.269Z,7.68
2022-11-27T23:34:26.338Z,8.93
2022-11-27T23:36:55.795Z,18.55
2022-11-27T23:39:23.917Z,11.43
2022-11-27T23:41:51.914Z,13.05
2022-11-27T23:44:21.016Z,13.05
2022-11-27T23:46:50.575Z,12.75
2022-11-27T23:49:18.825Z,10.32
2022-11-27T23:51:48.186Z,11.15
2022-11-27T23:54:16.297Z,10.77
2022-11-27T23:56:44.404Z,6.68
2022-11-27T23:59:15.409Z,11.98
